sensor_id;sensor_type;location;lat;lon;timestamp;temperature;humidity
24636;DHT22;12772;49.794;10.024;2023-04-07T00:03:07;11.00;31.10
24636;DHT22;12772;49.794;10.024;2023-04-07T00:07:09;10.70;30.70
24636;DHT22;12772;49.794;10.024;2023-04-07T00:11:12;11.10;31.20
24636;DHT22;12772;49.794;10.024;2023-04-07T00:15:14;11.00;31.10
24636;DHT22;12772;49.794;10.024;2023-04-07T00:19:16;10.60;31.10
24636;DHT22;12772;49.794;10.024;2023-04-07T00:23:18;11.10;32.30
24636;DHT22;12772;49.794;10.024;2023-04-07T00:27:21;11.00;32.60
24636;DHT22;12772;49.794;10.024;2023-04-07T00:31:23;11.00;33.30
24636;DHT22;12772;49.794;10.024;2023-04-07T00:35:25;10.60;33.30
24636;DHT22;12772;49.794;10.024;2023-04-07T00:39:27;10.90;34.30
24636;DHT22;12772;49.794;10.024;2023-04-07T00:43:30;10.90;34.80
24636;DHT22;12772;49.794;10.024;2023-04-07T00:47:32;10.70;36.10
24636;DHT22;12772;49.794;10.024;2023-04-07T00:51:34;10.40;36.00
24636;DHT22;12772;49.794;10.024;2023-04-07T00:55:36;10.80;37.60
24636;DHT22;12772;49.794;10.024;2023-04-07T00:59:38;10.30;38.60
24636;DHT22;12772;49.794;10.024;2023-04-07T01:03:48;10.30;39.30
24636;DHT22;12772;49.794;10.024;2023-04-07T01:12:26;10.70;40.40
24636;DHT22;12772;49.794;10.024;2023-04-07T01:16:31;10.30;40.70
24636;DHT22;12772;49.794;10.024;2023-04-07T01:20:36;10.70;41.60
24636;DHT22;12772;49.794;10.024;2023-04-07T01:33:31;10.40;42.20
24636;DHT22;12772;49.794;10.024;2023-04-07T01:37:35;9.90;43.30
24636;DHT22;12772;49.794;10.024;2023-04-07T01:41:38;10.10;42.60
24636;DHT22;12772;49.794;10.024;2023-04-07T01:45:42;10.20;43.20
24636;DHT22;12772;49.794;10.024;2023-04-07T01:49:45;10.00;43.70
24636;DHT22;12772;49.794;10.024;2023-04-07T01:53:48;10.10;43.90
24636;DHT22;12772;49.794;10.024;2023-04-07T01:57:52;9.70;44.70
24636;DHT22;12772;49.794;10.024;2023-04-07T02:01:54;9.60;44.60
24636;DHT22;12772;49.794;10.024;2023-04-07T02:06:02;9.50;44.50
24636;DHT22;12772;49.794;10.024;2023-04-07T02:10:07;10.10;44.00
24636;DHT22;12772;49.794;10.024;2023-04-07T02:14:12;10.10;44.60
24636;DHT22;12772;49.794;10.024;2023-04-07T02:18:15;9.80;45.90
24636;DHT22;12772;49.794;10.024;2023-04-07T02:22:18;9.80;46.70
24636;DHT22;12772;49.794;10.024;2023-04-07T02:26:20;9.40;46.50
24636;DHT22;12772;49.794;10.024;2023-04-07T02:30:23;9.70;47.10
24636;DHT22;12772;49.794;10.024;2023-04-07T02:34:25;9.40;47.50
24636;DHT22;12772;49.794;10.024;2023-04-07T02:38:27;9.70;48.00
24636;DHT22;12772;49.794;10.024;2023-04-07T02:42:29;9.70;48.30
24636;DHT22;12772;49.794;10.024;2023-04-07T02:46:31;9.60;48.60
24636;DHT22;12772;49.794;10.024;2023-04-07T02:50:33;9.50;48.70
24636;DHT22;12772;49.794;10.024;2023-04-07T02:54:35;9.50;49.00
24636;DHT22;12772;49.794;10.024;2023-04-07T02:58:37;9.40;49.30
24636;DHT22;12772;49.794;10.024;2023-04-07T03:02:39;9.30;49.50
24636;DHT22;12772;49.794;10.024;2023-04-07T03:06:41;9.20;49.50
24636;DHT22;12772;49.794;10.024;2023-04-07T03:10:43;9.30;49.80
24636;DHT22;12772;49.794;10.024;2023-04-07T03:14:45;9.70;50.20
24636;DHT22;12772;49.794;10.024;2023-04-07T03:18:47;9.40;50.00
24636;DHT22;12772;49.794;10.024;2023-04-07T03:22:49;9.30;49.60
24636;DHT22;12772;49.794;10.024;2023-04-07T03:26:51;9.30;49.50
24636;DHT22;12772;49.794;10.024;2023-04-07T03:30:53;9.50;49.70
24636;DHT22;12772;49.794;10.024;2023-04-07T03:34:55;9.70;49.80
24636;DHT22;12772;49.794;10.024;2023-04-07T03:38:57;9.90;50.10
24636;DHT22;12772;49.794;10.024;2023-04-07T03:43:00;9.80;50.40
24636;DHT22;12772;49.794;10.024;2023-04-07T03:47:02;9.50;50.20
24636;DHT22;12772;49.794;10.024;2023-04-07T03:51:04;9.60;50.40
24636;DHT22;12772;49.794;10.024;2023-04-07T03:55:06;9.90;50.60
24636;DHT22;12772;49.794;10.024;2023-04-07T03:59:09;10.00;49.60
24636;DHT22;12772;49.794;10.024;2023-04-07T04:03:11;9.80;50.50
24636;DHT22;12772;49.794;10.024;2023-04-07T04:07:13;9.60;50.30
24636;DHT22;12772;49.794;10.024;2023-04-07T04:11:15;9.50;50.20
24636;DHT22;12772;49.794;10.024;2023-04-07T04:15:17;9.60;50.20
24636;DHT22;12772;49.794;10.024;2023-04-07T04:19:19;9.60;50.30
24636;DHT22;12772;49.794;10.024;2023-04-07T04:23:21;9.50;50.10
24636;DHT22;12772;49.794;10.024;2023-04-07T04:27:23;9.90;50.50
24636;DHT22;12772;49.794;10.024;2023-04-07T04:31:25;9.60;50.30
24636;DHT22;12772;49.794;10.024;2023-04-07T04:35:27;9.40;50.10
24636;DHT22;12772;49.794;10.024;2023-04-07T04:39:29;9.80;50.80
24636;DHT22;12772;49.794;10.024;2023-04-07T04:43:31;9.60;50.90
24636;DHT22;12772;49.794;10.024;2023-04-07T04:47:33;9.30;50.90
24636;DHT22;12772;49.794;10.024;2023-04-07T04:51:35;9.20;50.60
24636;DHT22;12772;49.794;10.024;2023-04-07T04:55:37;9.30;50.80
24636;DHT22;12772;49.794;10.024;2023-04-07T04:59:40;9.30;51.70
24636;DHT22;12772;49.794;10.024;2023-04-07T05:03:42;9.50;51.60
24636;DHT22;12772;49.794;10.024;2023-04-07T05:07:44;9.50;51.80
24636;DHT22;12772;49.794;10.024;2023-04-07T05:11:46;9.50;51.80
24636;DHT22;12772;49.794;10.024;2023-04-07T05:15:48;9.60;51.70
24636;DHT22;12772;49.794;10.024;2023-04-07T05:19:50;9.60;51.80
24636;DHT22;12772;49.794;10.024;2023-04-07T05:23:53;9.30;52.10
24636;DHT22;12772;49.794;10.024;2023-04-07T05:27:55;9.50;52.90
24636;DHT22;12772;49.794;10.024;2023-04-07T05:31:56;9.50;53.00
24636;DHT22;12772;49.794;10.024;2023-04-07T05:35:59;9.50;53.30
24636;DHT22;12772;49.794;10.024;2023-04-07T05:40:01;9.30;53.50
24636;DHT22;12772;49.794;10.024;2023-04-07T05:44:03;9.10;53.60
24636;DHT22;12772;49.794;10.024;2023-04-07T05:48:06;9.20;54.20
24636;DHT22;12772;49.794;10.024;2023-04-07T05:52:08;9.30;54.50
24636;DHT22;12772;49.794;10.024;2023-04-07T05:56:10;9.10;54.40
24636;DHT22;12772;49.794;10.024;2023-04-07T06:00:12;9.50;55.10
24636;DHT22;12772;49.794;10.024;2023-04-07T06:04:14;9.80;55.90
24636;DHT22;12772;49.794;10.024;2023-04-07T06:08:16;9.50;55.80
24636;DHT22;12772;49.794;10.024;2023-04-07T06:12:18;9.40;55.40
24636;DHT22;12772;49.794;10.024;2023-04-07T06:16:21;9.80;55.70
24636;DHT22;12772;49.794;10.024;2023-04-07T06:20:23;9.60;55.40
24636;DHT22;12772;49.794;10.024;2023-04-07T06:24:25;9.20;54.70
24636;DHT22;12772;49.794;10.024;2023-04-07T06:28:27;9.70;55.10
24636;DHT22;12772;49.794;10.024;2023-04-07T06:32:29;9.60;54.60
24636;DHT22;12772;49.794;10.024;2023-04-07T06:36:31;9.40;54.30
24636;DHT22;12772;49.794;10.024;2023-04-07T06:40:34;9.70;54.50
24636;DHT22;12772;49.794;10.024;2023-04-07T06:44:36;9.40;54.10
24636;DHT22;12772;49.794;10.024;2023-04-07T06:48:38;9.70;54.40
24636;DHT22;12772;49.794;10.024;2023-04-07T06:52:40;9.40;54.20
24636;DHT22;12772;49.794;10.024;2023-04-07T06:56:42;9.80;54.50
24636;DHT22;12772;49.794;10.024;2023-04-07T07:00:44;9.80;54.40
24636;DHT22;12772;49.794;10.024;2023-04-07T07:04:46;10.00;53.40
24636;DHT22;12772;49.794;10.024;2023-04-07T07:08:48;9.80;54.70
24636;DHT22;12772;49.794;10.024;2023-04-07T07:12:51;9.90;55.10
24636;DHT22;12772;49.794;10.024;2023-04-07T07:16:53;9.80;55.70
24636;DHT22;12772;49.794;10.024;2023-04-07T07:20:55;9.80;56.10
24636;DHT22;12772;49.794;10.024;2023-04-07T07:24:57;9.60;56.00
24636;DHT22;12772;49.794;10.024;2023-04-07T07:28:59;9.50;56.30
24636;DHT22;12772;49.794;10.024;2023-04-07T07:33:01;9.40;56.40
24636;DHT22;12772;49.794;10.024;2023-04-07T07:37:03;9.30;56.40
24636;DHT22;12772;49.794;10.024;2023-04-07T07:41:05;9.60;57.00
24636;DHT22;12772;49.794;10.024;2023-04-07T07:45:08;9.70;57.50
24636;DHT22;12772;49.794;10.024;2023-04-07T07:49:10;9.80;58.00
24636;DHT22;12772;49.794;10.024;2023-04-07T07:53:12;9.60;58.40
24636;DHT22;12772;49.794;10.024;2023-04-07T07:57:14;9.90;58.10
24636;DHT22;12772;49.794;10.024;2023-04-07T08:01:16;9.80;58.00
24636;DHT22;12772;49.794;10.024;2023-04-07T08:05:18;10.00;57.00
24636;DHT22;12772;49.794;10.024;2023-04-07T08:09:21;10.20;57.20
24636;DHT22;12772;49.794;10.024;2023-04-07T08:13:23;10.00;56.90
24636;DHT22;12772;49.794;10.024;2023-04-07T08:17:25;10.20;57.20
24636;DHT22;12772;49.794;10.024;2023-04-07T08:21:27;9.80;58.00
24636;DHT22;12772;49.794;10.024;2023-04-07T08:25:29;9.70;57.90
24636;DHT22;12772;49.794;10.024;2023-04-07T08:29:31;9.80;58.00
24636;DHT22;12772;49.794;10.024;2023-04-07T08:33:34;9.90;57.60
24636;DHT22;12772;49.794;10.024;2023-04-07T08:37:37;10.50;56.80
24636;DHT22;12772;49.794;10.024;2023-04-07T08:41:40;10.30;56.00
24636;DHT22;12772;49.794;10.024;2023-04-07T08:45:45;10.40;55.30
24636;DHT22;12772;49.794;10.024;2023-04-07T08:49:49;10.40;55.10
24636;DHT22;12772;49.794;10.024;2023-04-07T08:53:53;10.50;55.00
24636;DHT22;12772;49.794;10.024;2023-04-07T08:57:55;10.20;54.00
24636;DHT22;12772;49.794;10.024;2023-04-07T09:01:58;10.70;54.60
24636;DHT22;12772;49.794;10.024;2023-04-07T09:06:00;10.30;54.40
24636;DHT22;12772;49.794;10.024;2023-04-07T09:10:03;10.70;53.40
24636;DHT22;12772;49.794;10.024;2023-04-07T09:14:06;10.90;53.50
24636;DHT22;12772;49.794;10.024;2023-04-07T09:18:08;11.00;53.60
24636;DHT22;12772;49.794;10.024;2023-04-07T09:22:10;11.10;53.90
24636;DHT22;12772;49.794;10.024;2023-04-07T09:30:19;11.20;52.70
24636;DHT22;12772;49.794;10.024;2023-04-07T09:38:33;11.60;52.60
24636;DHT22;12772;49.794;10.024;2023-04-07T09:42:44;11.80;52.30
24636;DHT22;12772;49.794;10.024;2023-04-07T09:46:53;12.00;52.00
24636;DHT22;12772;49.794;10.024;2023-04-07T09:51:04;12.20;49.90
24636;DHT22;12772;49.794;10.024;2023-04-07T09:55:07;12.20;48.40
24636;DHT22;12772;49.794;10.024;2023-04-07T09:59:09;12.20;49.00
24636;DHT22;12772;49.794;10.024;2023-04-07T10:03:12;12.30;48.00
24636;DHT22;12772;49.794;10.024;2023-04-07T10:07:14;12.30;46.40
24636;DHT22;12772;49.794;10.024;2023-04-07T10:11:16;12.30;46.40
24636;DHT22;12772;49.794;10.024;2023-04-07T10:15:19;12.30;46.40
24636;DHT22;12772;49.794;10.024;2023-04-07T10:19:21;12.40;46.50
24636;DHT22;12772;49.794;10.024;2023-04-07T10:28:20;12.50;45.70
24636;DHT22;12772;49.794;10.024;2023-04-07T10:32:23;12.50;45.90
24636;DHT22;12772;49.794;10.024;2023-04-07T10:36:26;12.60;44.60
24636;DHT22;12772;49.794;10.024;2023-04-07T10:40:29;12.60;44.50
24636;DHT22;12772;49.794;10.024;2023-04-07T10:48:42;12.70;43.60
24636;DHT22;12772;49.794;10.024;2023-04-07T10:52:45;12.70;43.10
24636;DHT22;12772;49.794;10.024;2023-04-07T10:57:03;12.70;42.90
24636;DHT22;12772;49.794;10.024;2023-04-07T11:05:19;12.70;42.60
24636;DHT22;12772;49.794;10.024;2023-04-07T11:09:22;12.80;42.90
24636;DHT22;12772;49.794;10.024;2023-04-07T11:13:25;12.90;43.10
24636;DHT22;12772;49.794;10.024;2023-04-07T11:17:28;13.00;42.30
24636;DHT22;12772;49.794;10.024;2023-04-07T11:21:30;13.00;41.70
24636;DHT22;12772;49.794;10.024;2023-04-07T11:25:32;13.10;42.00
24636;DHT22;12772;49.794;10.024;2023-04-07T11:29:35;13.20;41.50
24636;DHT22;12772;49.794;10.024;2023-04-07T11:33:38;13.20;41.20
24636;DHT22;12772;49.794;10.024;2023-04-07T11:37:40;13.30;41.10
24636;DHT22;12772;49.794;10.024;2023-04-07T11:41:47;13.30;41.40
24636;DHT22;12772;49.794;10.024;2023-04-07T11:46:12;13.30;41.30
24636;DHT22;12772;49.794;10.024;2023-04-07T11:50:14;13.40;41.00
24636;DHT22;12772;49.794;10.024;2023-04-07T11:54:17;13.30;40.30
24636;DHT22;12772;49.794;10.024;2023-04-07T11:58:19;13.30;40.90
24636;DHT22;12772;49.794;10.024;2023-04-07T12:02:31;13.30;40.50
24636;DHT22;12772;49.794;10.024;2023-04-07T12:06:35;13.40;40.60
24636;DHT22;12772;49.794;10.024;2023-04-07T12:10:38;13.50;40.90
24636;DHT22;12772;49.794;10.024;2023-04-07T12:14:41;13.60;40.80
24636;DHT22;12772;49.794;10.024;2023-04-07T12:18:43;13.60;40.40
24636;DHT22;12772;49.794;10.024;2023-04-07T12:22:45;13.70;40.60
24636;DHT22;12772;49.794;10.024;2023-04-07T12:26:47;13.70;40.30
24636;DHT22;12772;49.794;10.024;2023-04-07T12:30:49;13.80;40.10
24636;DHT22;12772;49.794;10.024;2023-04-07T12:34:51;13.80;39.80
24636;DHT22;12772;49.794;10.024;2023-04-07T12:38:53;13.90;39.90
24636;DHT22;12772;49.794;10.024;2023-04-07T12:42:56;13.90;40.00
24636;DHT22;12772;49.794;10.024;2023-04-07T12:46:58;13.90;40.00
24636;DHT22;12772;49.794;10.024;2023-04-07T12:51:01;13.90;39.70
24636;DHT22;12772;49.794;10.024;2023-04-07T12:55:03;13.90;40.00
24636;DHT22;12772;49.794;10.024;2023-04-07T12:59:05;13.90;40.30
24636;DHT22;12772;49.794;10.024;2023-04-07T13:03:08;14.00;40.20
24636;DHT22;12772;49.794;10.024;2023-04-07T13:07:10;14.10;39.70
24636;DHT22;12772;49.794;10.024;2023-04-07T13:11:13;14.20;39.40
24636;DHT22;12772;49.794;10.024;2023-04-07T13:15:15;14.20;38.90
24636;DHT22;12772;49.794;10.024;2023-04-07T13:19:17;14.30;39.20
24636;DHT22;12772;49.794;10.024;2023-04-07T13:23:20;14.40;39.70
24636;DHT22;12772;49.794;10.024;2023-04-07T13:27:22;14.60;39.40
24636;DHT22;12772;49.794;10.024;2023-04-07T13:31:24;14.70;39.30
24636;DHT22;12772;49.794;10.024;2023-04-07T13:35:27;14.80;39.40
24636;DHT22;12772;49.794;10.024;2023-04-07T13:39:30;14.80;38.30
24636;DHT22;12772;49.794;10.024;2023-04-07T13:43:32;14.90;38.60
24636;DHT22;12772;49.794;10.024;2023-04-07T13:47:35;14.90;38.20
24636;DHT22;12772;49.794;10.024;2023-04-07T13:51:38;15.00;38.40
24636;DHT22;12772;49.794;10.024;2023-04-07T13:55:40;15.10;37.80
24636;DHT22;12772;49.794;10.024;2023-04-07T13:59:42;15.10;37.00
24636;DHT22;12772;49.794;10.024;2023-04-07T14:03:44;15.10;37.00
24636;DHT22;12772;49.794;10.024;2023-04-07T14:07:47;15.10;35.70
24636;DHT22;12772;49.794;10.024;2023-04-07T14:11:49;15.20;35.90
24636;DHT22;12772;49.794;10.024;2023-04-07T14:15:51;15.20;36.20
24636;DHT22;12772;49.794;10.024;2023-04-07T14:19:54;15.30;35.90
24636;DHT22;12772;49.794;10.024;2023-04-07T14:23:56;15.30;35.90
24636;DHT22;12772;49.794;10.024;2023-04-07T14:27:58;15.40;36.00
24636;DHT22;12772;49.794;10.024;2023-04-07T14:32:00;15.30;35.90
24636;DHT22;12772;49.794;10.024;2023-04-07T14:36:02;15.30;35.90
24636;DHT22;12772;49.794;10.024;2023-04-07T14:40:05;15.30;35.90
24636;DHT22;12772;49.794;10.024;2023-04-07T14:44:07;15.30;36.00
24636;DHT22;12772;49.794;10.024;2023-04-07T14:48:09;15.20;35.80
24636;DHT22;12772;49.794;10.024;2023-04-07T14:52:13;15.20;35.00
24636;DHT22;12772;49.794;10.024;2023-04-07T14:56:15;15.20;35.80
24636;DHT22;12772;49.794;10.024;2023-04-07T15:00:17;15.30;35.20
24636;DHT22;12772;49.794;10.024;2023-04-07T15:04:19;15.30;35.00
24636;DHT22;12772;49.794;10.024;2023-04-07T15:08:21;15.30;34.90
24636;DHT22;12772;49.794;10.024;2023-04-07T15:12:23;15.30;35.30
24636;DHT22;12772;49.794;10.024;2023-04-07T15:16:26;15.30;35.40
24636;DHT22;12772;49.794;10.024;2023-04-07T15:20:28;15.30;34.90
24636;DHT22;12772;49.794;10.024;2023-04-07T15:24:30;15.30;34.50
24636;DHT22;12772;49.794;10.024;2023-04-07T15:28:32;15.30;34.70
24636;DHT22;12772;49.794;10.024;2023-04-07T15:32:34;15.20;34.90
24636;DHT22;12772;49.794;10.024;2023-04-07T15:36:36;15.20;35.30
24636;DHT22;12772;49.794;10.024;2023-04-07T15:40:39;15.20;35.80
24636;DHT22;12772;49.794;10.024;2023-04-07T15:44:41;15.20;35.80
24636;DHT22;12772;49.794;10.024;2023-04-07T15:48:43;15.20;35.80
24636;DHT22;12772;49.794;10.024;2023-04-07T15:52:47;15.20;35.80
24636;DHT22;12772;49.794;10.024;2023-04-07T15:56:49;15.30;35.90
24636;DHT22;12772;49.794;10.024;2023-04-07T16:00:51;15.30;35.90
24636;DHT22;12772;49.794;10.024;2023-04-07T16:04:53;15.30;35.90
24636;DHT22;12772;49.794;10.024;2023-04-07T16:08:58;15.30;35.90
24636;DHT22;12772;49.794;10.024;2023-04-07T16:13:00;15.30;35.90
24636;DHT22;12772;49.794;10.024;2023-04-07T16:17:02;15.30;35.90
24636;DHT22;12772;49.794;10.024;2023-04-07T16:21:07;15.20;35.80
24636;DHT22;12772;49.794;10.024;2023-04-07T16:25:10;15.20;35.80
24636;DHT22;12772;49.794;10.024;2023-04-07T16:29:12;15.20;35.80
24636;DHT22;12772;49.794;10.024;2023-04-07T16:33:14;15.10;35.70
24636;DHT22;12772;49.794;10.024;2023-04-07T16:37:16;15.00;35.60
24636;DHT22;12772;49.794;10.024;2023-04-07T16:41:18;15.00;35.60
24636;DHT22;12772;49.794;10.024;2023-04-07T16:45:20;14.90;35.70
24636;DHT22;12772;49.794;10.024;2023-04-07T16:49:22;14.80;36.10
24636;DHT22;12772;49.794;10.024;2023-04-07T16:53:24;14.80;36.30
24636;DHT22;12772;49.794;10.024;2023-04-07T16:57:26;14.80;36.50
24636;DHT22;12772;49.794;10.024;2023-04-07T17:01:28;14.70;36.60
24636;DHT22;12772;49.794;10.024;2023-04-07T17:05:30;14.70;36.70
24636;DHT22;12772;49.794;10.024;2023-04-07T17:09:33;14.70;36.90
24636;DHT22;12772;49.794;10.024;2023-04-07T17:13:35;14.70;37.20
24636;DHT22;12772;49.794;10.024;2023-04-07T17:17:39;14.70;37.50
24636;DHT22;12772;49.794;10.024;2023-04-07T17:21:42;14.60;37.30
24636;DHT22;12772;49.794;10.024;2023-04-07T17:25:44;14.50;37.10
24636;DHT22;12772;49.794;10.024;2023-04-07T17:29:46;14.50;37.40
24636;DHT22;12772;49.794;10.024;2023-04-07T17:33:48;14.40;37.60
24636;DHT22;12772;49.794;10.024;2023-04-07T17:37:51;14.30;37.70
24636;DHT22;12772;49.794;10.024;2023-04-07T17:41:53;14.30;38.10
24636;DHT22;12772;49.794;10.024;2023-04-07T17:45:55;14.20;38.20
24636;DHT22;12772;49.794;10.024;2023-04-07T17:49:57;14.10;38.20
24636;DHT22;12772;49.794;10.024;2023-04-07T17:53:59;14.10;38.30
24636;DHT22;12772;49.794;10.024;2023-04-07T17:58:01;14.00;38.40
24636;DHT22;12772;49.794;10.024;2023-04-07T18:02:04;14.00;38.60
24636;DHT22;12772;49.794;10.024;2023-04-07T18:06:14;13.90;38.70
24636;DHT22;12772;49.794;10.024;2023-04-07T18:10:17;13.90;38.90
24636;DHT22;12772;49.794;10.024;2023-04-07T18:14:19;13.80;38.90
24636;DHT22;12772;49.794;10.024;2023-04-07T18:18:21;13.70;39.00
24636;DHT22;12772;49.794;10.024;2023-04-07T18:22:23;13.60;39.20
24636;DHT22;12772;49.794;10.024;2023-04-07T18:26:25;13.60;39.50
24636;DHT22;12772;49.794;10.024;2023-04-07T18:30:27;13.50;39.70
24636;DHT22;12772;49.794;10.024;2023-04-07T18:34:29;13.40;40.00
24636;DHT22;12772;49.794;10.024;2023-04-07T18:38:31;13.30;40.20
24636;DHT22;12772;49.794;10.024;2023-04-07T18:42:33;13.20;40.50
24636;DHT22;12772;49.794;10.024;2023-04-07T18:46:35;13.10;40.50
24636;DHT22;12772;49.794;10.024;2023-04-07T18:50:38;13.10;41.00
24636;DHT22;12772;49.794;10.024;2023-04-07T18:54:40;13.10;41.30
24636;DHT22;12772;49.794;10.024;2023-04-07T18:58:41;13.00;41.30
24636;DHT22;12772;49.794;10.024;2023-04-07T19:02:47;13.00;41.60
24636;DHT22;12772;49.794;10.024;2023-04-07T19:06:53;12.90;41.80
24636;DHT22;12772;49.794;10.024;2023-04-07T19:10:55;12.90;42.30
24636;DHT22;12772;49.794;10.024;2023-04-07T19:14:57;12.80;42.40
24636;DHT22;12772;49.794;10.024;2023-04-07T19:18:59;12.80;42.70
24636;DHT22;12772;49.794;10.024;2023-04-07T19:23:01;12.80;42.80
24636;DHT22;12772;49.794;10.024;2023-04-07T19:27:03;12.80;42.90
24636;DHT22;12772;49.794;10.024;2023-04-07T19:31:09;12.70;43.20
24636;DHT22;12772;49.794;10.024;2023-04-07T19:35:11;12.70;43.40
24636;DHT22;12772;49.794;10.024;2023-04-07T19:39:13;12.60;43.70
24636;DHT22;12772;49.794;10.024;2023-04-07T19:43:15;12.50;43.90
24636;DHT22;12772;49.794;10.024;2023-04-07T19:47:17;12.40;44.20
24636;DHT22;12772;49.794;10.024;2023-04-07T19:51:19;12.40;44.60
24636;DHT22;12772;49.794;10.024;2023-04-07T19:55:21;12.40;44.70
24636;DHT22;12772;49.794;10.024;2023-04-07T19:59:23;12.40;44.80
24636;DHT22;12772;49.794;10.024;2023-04-07T20:03:25;12.30;44.90
24636;DHT22;12772;49.794;10.024;2023-04-07T20:07:31;12.30;45.00
24636;DHT22;12772;49.794;10.024;2023-04-07T20:11:33;12.30;45.20
24636;DHT22;12772;49.794;10.024;2023-04-07T20:15:35;12.20;45.10
24636;DHT22;12772;49.794;10.024;2023-04-07T20:19:38;12.20;45.20
24636;DHT22;12772;49.794;10.024;2023-04-07T20:23:40;12.20;45.40
24636;DHT22;12772;49.794;10.024;2023-04-07T20:27:42;12.10;45.50
24636;DHT22;12772;49.794;10.024;2023-04-07T20:31:48;11.60;45.50
24636;DHT22;12772;49.794;10.024;2023-04-07T20:35:50;12.00;46.00
24636;DHT22;12772;49.794;10.024;2023-04-07T20:39:52;11.50;45.50
24636;DHT22;12772;49.794;10.024;2023-04-07T20:43:55;11.90;45.90
24636;DHT22;12772;49.794;10.024;2023-04-07T20:47:57;11.80;45.80
24636;DHT22;12772;49.794;10.024;2023-04-07T20:51:59;11.80;45.80
24636;DHT22;12772;49.794;10.024;2023-04-07T20:56:01;11.70;45.70
24636;DHT22;12772;49.794;10.024;2023-04-07T21:00:05;11.70;45.70
24636;DHT22;12772;49.794;10.024;2023-04-07T21:04:09;11.60;45.90
24636;DHT22;12772;49.794;10.024;2023-04-07T21:08:11;11.60;46.40
24636;DHT22;12772;49.794;10.024;2023-04-07T21:12:13;11.50;46.60
24636;DHT22;12772;49.794;10.024;2023-04-07T21:16:15;11.50;46.90
24636;DHT22;12772;49.794;10.024;2023-04-07T21:20:17;11.40;46.80
24636;DHT22;12772;49.794;10.024;2023-04-07T21:24:20;11.40;47.00
24636;DHT22;12772;49.794;10.024;2023-04-07T21:28:22;11.30;47.10
24636;DHT22;12772;49.794;10.024;2023-04-07T21:32:24;11.30;47.50
24636;DHT22;12772;49.794;10.024;2023-04-07T21:36:26;10.80;47.20
24636;DHT22;12772;49.794;10.024;2023-04-07T21:40:28;11.20;48.10
24636;DHT22;12772;49.794;10.024;2023-04-07T21:44:30;10.70;47.80
24636;DHT22;12772;49.794;10.024;2023-04-07T21:48:32;10.90;48.30
24636;DHT22;12772;49.794;10.024;2023-04-07T21:52:34;10.60;48.40
24636;DHT22;12772;49.794;10.024;2023-04-07T21:56:36;11.00;49.00
24636;DHT22;12772;49.794;10.024;2023-04-07T22:00:38;10.60;48.70
24636;DHT22;12772;49.794;10.024;2023-04-07T22:04:40;11.00;49.10
24636;DHT22;12772;49.794;10.024;2023-04-07T22:08:42;10.60;48.80
24636;DHT22;12772;49.794;10.024;2023-04-07T22:12:44;10.90;49.20
24636;DHT22;12772;49.794;10.024;2023-04-07T22:16:46;10.50;48.80
24636;DHT22;12772;49.794;10.024;2023-04-07T22:20:48;10.50;48.50
24636;DHT22;12772;49.794;10.024;2023-04-07T22:24:50;10.80;48.70
24636;DHT22;12772;49.794;10.024;2023-04-07T22:28:52;10.40;48.10
24636;DHT22;12772;49.794;10.024;2023-04-07T22:32:54;10.70;47.60
24636;DHT22;12772;49.794;10.024;2023-04-07T22:36:56;10.60;47.40
24636;DHT22;12772;49.794;10.024;2023-04-07T22:40:58;10.20;46.70
24636;DHT22;12772;49.794;10.024;2023-04-07T22:45:01;10.50;46.80
24636;DHT22;12772;49.794;10.024;2023-04-07T22:49:03;10.40;46.90
24636;DHT22;12772;49.794;10.024;2023-04-07T22:53:06;10.40;46.90
24636;DHT22;12772;49.794;10.024;2023-04-07T22:57:08;9.90;47.40
24636;DHT22;12772;49.794;10.024;2023-04-07T23:01:10;10.30;46.90
24636;DHT22;12772;49.794;10.024;2023-04-07T23:05:12;10.30;46.90
24636;DHT22;12772;49.794;10.024;2023-04-07T23:09:14;9.90;47.70
24636;DHT22;12772;49.794;10.024;2023-04-07T23:13:16;10.20;46.90
24636;DHT22;12772;49.794;10.024;2023-04-07T23:17:19;9.90;48.00
24636;DHT22;12772;49.794;10.024;2023-04-07T23:21:21;10.10;47.10
24636;DHT22;12772;49.794;10.024;2023-04-07T23:25:23;10.10;47.10
24636;DHT22;12772;49.794;10.024;2023-04-07T23:29:25;9.80;48.10
24636;DHT22;12772;49.794;10.024;2023-04-07T23:33:29;9.60;47.90
24636;DHT22;12772;49.794;10.024;2023-04-07T23:37:32;9.60;47.80
24636;DHT22;12772;49.794;10.024;2023-04-07T23:41:34;9.70;47.60
24636;DHT22;12772;49.794;10.024;2023-04-07T23:45:37;9.90;47.80
24636;DHT22;12772;49.794;10.024;2023-04-07T23:49:39;10.10;46.60
24636;DHT22;12772;49.794;10.024;2023-04-07T23:53:40;9.70;47.40
24636;DHT22;12772;49.794;10.024;2023-04-07T23:57:42;9.90;47.70
